sensor_id;sensor_type;location;lat;lon;timestamp;pressure;altitude;pressure_sealevel;temperature;humidity
3132;BME280;62090;52.330;9.104;2022-08-19T00:02:25;100759.69;;;22.89;75.00
3132;BME280;62090;52.330;9.104;2022-08-19T00:04:56;100585.66;;;21.85;75.72
3132;BME280;62090;52.330;9.104;2022-08-19T00:07:28;100499.63;;;21.33;75.10
3132;BME280;62090;52.330;9.104;2022-08-19T00:10:03;100695.66;;;22.52;75.08
3132;BME280;62090;52.330;9.104;2022-08-19T00:12:33;100615.69;;;21.97;74.85
3132;BME280;62090;52.330;9.104;2022-08-19T00:15:19;100601.16;;;21.88;74.90
3132;BME280;62090;52.330;9.104;2022-08-19T00:17:55;100773.13;;;22.69;75.25
3132;BME280;62090;52.330;9.104;2022-08-19T00:20:28;100658.78;;;22.04;76.26
3132;BME280;62090;52.330;9.104;2022-08-19T00:22:59;100628.19;;;21.78;75.85
3132;BME280;62090;52.330;9.104;2022-08-19T00:25:31;100627.31;;;21.79;76.02
3132;BME280;62090;52.330;9.104;2022-08-19T00:28:09;100765.78;;;22.52;76.45
3132;BME280;62090;52.330;9.104;2022-08-19T00:30:41;100745.16;;;22.46;76.63
3132;BME280;62090;52.330;9.104;2022-08-19T00:33:18;100681.13;;;22.10;76.11
3132;BME280;62090;52.330;9.104;2022-08-19T00:35:54;100759.75;;;22.50;76.16
3132;BME280;62090;52.330;9.104;2022-08-19T00:38:32;100668.34;;;22.01;76.42
3132;BME280;62090;52.330;9.104;2022-08-19T00:41:09;100525.53;;;21.33;75.31
3132;BME280;62090;52.330;9.104;2022-08-19T00:43:56;100472.03;;;20.92;76.07
3132;BME280;62090;52.330;9.104;2022-08-19T00:46:35;100607.63;;;21.71;76.07
3132;BME280;62090;52.330;9.104;2022-08-19T00:49:19;100611.69;;;21.82;75.88
3132;BME280;62090;52.330;9.104;2022-08-19T00:52:00;100757.06;;;22.55;76.28
3132;BME280;62090;52.330;9.104;2022-08-19T00:54:41;100757.06;;;22.53;76.51
3132;BME280;62090;52.330;9.104;2022-08-19T00:57:27;100654.69;;;21.92;75.50
3132;BME280;62090;52.330;9.104;2022-08-19T00:59:59;100588.75;;;21.64;76.31
3132;BME280;62090;52.330;9.104;2022-08-19T01:02:32;100584.38;;;21.68;76.54
3132;BME280;62090;52.330;9.104;2022-08-19T01:05:12;100650.00;;;22.10;76.08
3132;BME280;62090;52.330;9.104;2022-08-19T01:07:46;100735.16;;;22.63;75.85
3132;BME280;62090;52.330;9.104;2022-08-19T01:10:29;100632.72;;;22.07;76.14
3132;BME280;62090;52.330;9.104;2022-08-19T01:13:19;100562.53;;;21.76;75.84
3132;BME280;62090;52.330;9.104;2022-08-19T01:15:52;100577.22;;;21.77;76.50
3132;BME280;62090;52.330;9.104;2022-08-19T01:18:35;100525.66;;;21.28;76.22
3132;BME280;62090;52.330;9.104;2022-08-19T01:21:18;100710.38;;;22.52;76.45
3132;BME280;62090;52.330;9.104;2022-08-19T01:23:56;100636.16;;;22.09;77.04
3132;BME280;62090;52.330;9.104;2022-08-19T01:26:38;100436.16;;;20.75;76.84
3132;BME280;62090;52.330;9.104;2022-08-19T01:29:11;100543.28;;;21.51;77.35
3132;BME280;62090;52.330;9.104;2022-08-19T01:31:45;100537.16;;;21.52;76.97
3132;BME280;62090;52.330;9.104;2022-08-19T01:34:29;100630.44;;;21.94;76.98
3132;BME280;62090;52.330;9.104;2022-08-19T01:37:09;100682.47;;;22.26;76.88
3132;BME280;62090;52.330;9.104;2022-08-19T01:39:59;100542.69;;;21.38;77.01
3132;BME280;62090;52.330;9.104;2022-08-19T01:42:44;100660.78;;;21.90;77.48
3132;BME280;62090;52.330;9.104;2022-08-19T01:45:25;100700.19;;;22.09;77.37
3132;BME280;62090;52.330;9.104;2022-08-19T01:48:03;100564.28;;;21.39;77.07
3132;BME280;62090;52.330;9.104;2022-08-19T01:50:43;100535.28;;;21.22;77.77
3132;BME280;62090;52.330;9.104;2022-08-19T01:53:32;100679.59;;;22.01;77.24
3132;BME280;62090;52.330;9.104;2022-08-19T01:56:12;100673.50;;;22.02;77.27
3132;BME280;62090;52.330;9.104;2022-08-19T01:58:51;100528.84;;;20.99;77.55
3132;BME280;62090;52.330;9.104;2022-08-19T02:01:29;100511.53;;;21.01;77.65
3132;BME280;62090;52.330;9.104;2022-08-19T02:04:02;100544.06;;;21.16;77.26
3132;BME280;62090;52.330;9.104;2022-08-19T02:06:41;100667.56;;;21.97;77.13
3132;BME280;62090;52.330;9.104;2022-08-19T02:09:17;100538.97;;;21.10;77.64
3132;BME280;62090;52.330;9.104;2022-08-19T02:11:51;100692.84;;;21.87;77.51
3132;BME280;62090;52.330;9.104;2022-08-19T02:14:27;100660.47;;;21.67;78.11
3132;BME280;62090;52.330;9.104;2022-08-19T02:16:59;100512.06;;;20.77;78.25
3132;BME280;62090;52.330;9.104;2022-08-19T02:19:32;100473.84;;;20.47;78.21
3132;BME280;62090;52.330;9.104;2022-08-19T02:22:09;100496.81;;;20.63;77.95
3132;BME280;62090;52.330;9.104;2022-08-19T02:24:39;100681.38;;;21.59;78.36
3132;BME280;62090;52.330;9.104;2022-08-19T02:27:12;100518.16;;;20.75;78.59
3132;BME280;62090;52.330;9.104;2022-08-19T02:29:45;100681.22;;;21.67;78.54
3132;BME280;62090;52.330;9.104;2022-08-19T02:32:19;100525.72;;;20.84;77.77
3132;BME280;62090;52.330;9.104;2022-08-19T02:34:49;100632.56;;;21.39;77.58
3132;BME280;62090;52.330;9.104;2022-08-19T02:37:20;100688.94;;;21.70;77.18
3132;BME280;62090;52.330;9.104;2022-08-19T02:40:03;100645.19;;;21.53;77.43
3132;BME280;62090;52.330;9.104;2022-08-19T02:42:41;100402.97;;;20.11;76.48
3132;BME280;62090;52.330;9.104;2022-08-19T02:45:30;100513.16;;;20.67;76.61
3132;BME280;62090;52.330;9.104;2022-08-19T02:48:06;100521.84;;;20.63;77.27
3132;BME280;62090;52.330;9.104;2022-08-19T02:50:49;100396.69;;;19.78;77.66
3132;BME280;62090;52.330;9.104;2022-08-19T02:53:24;100580.81;;;20.93;77.77
3132;BME280;62090;52.330;9.104;2022-08-19T02:55:54;100578.22;;;20.93;77.94
3132;BME280;62090;52.330;9.104;2022-08-19T02:58:27;100390.00;;;19.68;77.55
3132;BME280;62090;52.330;9.104;2022-08-19T03:00:57;100526.47;;;20.49;78.80
3132;BME280;62090;52.330;9.104;2022-08-19T03:03:28;100657.88;;;21.27;78.75
3132;BME280;62090;52.330;9.104;2022-08-19T03:06:06;100555.59;;;20.60;79.20
3132;BME280;62090;52.330;9.104;2022-08-19T03:08:38;100567.78;;;20.55;79.41
3132;BME280;62090;52.330;9.104;2022-08-19T03:11:13;100605.47;;;20.68;79.70
3132;BME280;62090;52.330;9.104;2022-08-19T03:13:47;100364.03;;;19.25;80.01
3132;BME280;62090;52.330;9.104;2022-08-19T03:16:19;100388.19;;;19.22;80.20
3132;BME280;62090;52.330;9.104;2022-08-19T03:18:50;100625.28;;;20.72;79.88
3132;BME280;62090;52.330;9.104;2022-08-19T03:21:22;100557.88;;;20.29;79.72
3132;BME280;62090;52.330;9.104;2022-08-19T03:23:54;100681.00;;;20.91;80.14
3132;BME280;62090;52.330;9.104;2022-08-19T03:26:25;100684.47;;;20.90;80.09
3132;BME280;62090;52.330;9.104;2022-08-19T03:29:02;100517.09;;;19.94;79.89
3132;BME280;62090;52.330;9.104;2022-08-19T03:31:35;100534.97;;;20.08;80.62
3132;BME280;62090;52.330;9.104;2022-08-19T03:34:19;100539.97;;;20.18;79.66
3132;BME280;62090;52.330;9.104;2022-08-19T03:36:55;100698.03;;;21.04;78.96
3132;BME280;62090;52.330;9.104;2022-08-19T03:39:27;100621.00;;;20.70;78.63
3132;BME280;62090;52.330;9.104;2022-08-19T03:42:01;100538.25;;;20.16;78.04
3132;BME280;62090;52.330;9.104;2022-08-19T03:44:55;100554.53;;;20.22;78.40
3132;BME280;62090;52.330;9.104;2022-08-19T03:47:25;100426.63;;;19.40;78.42
3132;BME280;62090;52.330;9.104;2022-08-19T03:49:55;100653.75;;;20.72;78.41
3132;BME280;62090;52.330;9.104;2022-08-19T03:52:26;100676.81;;;20.84;78.28
3132;BME280;62090;52.330;9.104;2022-08-19T03:54:57;100552.16;;;20.10;78.52
3132;BME280;62090;52.330;9.104;2022-08-19T03:57:27;100622.16;;;20.53;77.59
3132;BME280;62090;52.330;9.104;2022-08-19T04:00:05;100717.88;;;21.05;77.29
3132;BME280;62090;52.330;9.104;2022-08-19T04:02:40;100627.31;;;20.55;77.14
3132;BME280;62090;52.330;9.104;2022-08-19T04:05:27;100700.88;;;20.91;77.12
3132;BME280;62090;52.330;9.104;2022-08-19T04:08:06;100649.97;;;20.42;78.07
3132;BME280;62090;52.330;9.104;2022-08-19T04:10:39;100579.03;;;20.03;78.48
3132;BME280;62090;52.330;9.104;2022-08-19T04:13:10;100703.84;;;20.73;78.98
3132;BME280;62090;52.330;9.104;2022-08-19T04:15:45;100559.47;;;19.87;79.05
3132;BME280;62090;52.330;9.104;2022-08-19T04:18:16;100661.34;;;20.34;79.90
3132;BME280;62090;52.330;9.104;2022-08-19T04:20:46;100592.16;;;19.91;80.07
3132;BME280;62090;52.330;9.104;2022-08-19T04:23:17;100684.41;;;20.47;81.26
3132;BME280;62090;52.330;9.104;2022-08-19T04:25:49;100687.03;;;20.46;81.93
3132;BME280;62090;52.330;9.104;2022-08-19T04:28:20;100620.47;;;20.00;81.69
3132;BME280;62090;52.330;9.104;2022-08-19T04:30:56;100494.91;;;19.27;81.54
3132;BME280;62090;52.330;9.104;2022-08-19T04:33:28;100541.91;;;19.52;82.44
3132;BME280;62090;52.330;9.104;2022-08-19T04:36:06;100592.19;;;19.90;81.41
3132;BME280;62090;52.330;9.104;2022-08-19T04:38:38;100454.72;;;19.08;81.66
3132;BME280;62090;52.330;9.104;2022-08-19T04:41:09;100631.47;;;20.14;81.18
3132;BME280;62090;52.330;9.104;2022-08-19T04:44:00;100547.53;;;19.78;80.51
3132;BME280;62090;52.330;9.104;2022-08-19T04:46:40;100675.66;;;20.53;79.58
3132;BME280;62090;52.330;9.104;2022-08-19T04:49:19;100511.03;;;19.45;78.86
3132;BME280;62090;52.330;9.104;2022-08-19T04:51:54;100608.63;;;19.87;78.67
3132;BME280;62090;52.330;9.104;2022-08-19T04:54:25;100668.25;;;20.35;78.81
3132;BME280;62090;52.330;9.104;2022-08-19T04:57:05;100628.22;;;20.00;78.91
3132;BME280;62090;52.330;9.104;2022-08-19T04:59:38;100705.25;;;20.40;79.14
3132;BME280;62090;52.330;9.104;2022-08-19T05:02:11;100729.91;;;20.62;79.40
3132;BME280;62090;52.330;9.104;2022-08-19T05:04:40;100712.41;;;20.75;79.53
3132;BME280;62090;52.330;9.104;2022-08-19T05:07:10;100719.56;;;21.92;74.56
3132;BME280;62090;52.330;9.104;2022-08-19T05:09:40;100707.44;;;21.53;75.98
3132;BME280;62090;52.330;9.104;2022-08-19T05:12:25;100707.31;;;21.59;77.32
3132;BME280;62090;52.330;9.104;2022-08-19T05:14:55;100704.69;;;21.62;76.43
3132;BME280;62090;52.330;9.104;2022-08-19T05:17:28;100650.81;;;21.35;75.97
3132;BME280;62090;52.330;9.104;2022-08-19T05:20:06;100708.16;;;21.60;75.76
3132;BME280;62090;52.330;9.104;2022-08-19T05:22:49;100707.41;;;21.56;75.94
3132;BME280;62090;52.330;9.104;2022-08-19T05:25:21;100701.22;;;21.62;75.40
3132;BME280;62090;52.330;9.104;2022-08-19T05:27:52;100705.13;;;21.79;76.11
3132;BME280;62090;52.330;9.104;2022-08-19T05:30:22;100706.63;;;21.89;76.43
3132;BME280;62090;52.330;9.104;2022-08-19T05:33:14;100708.22;;;21.98;75.80
3132;BME280;62090;52.330;9.104;2022-08-19T05:35:44;100701.16;;;22.05;75.38
3132;BME280;62090;52.330;9.104;2022-08-19T05:38:15;100700.97;;;22.12;75.11
3132;BME280;62090;52.330;9.104;2022-08-19T05:40:45;100705.13;;;22.19;75.29
3132;BME280;62090;52.330;9.104;2022-08-19T05:43:16;100700.78;;;22.20;74.61
3132;BME280;62090;52.330;9.104;2022-08-19T05:45:46;100705.28;;;22.12;74.99
3132;BME280;62090;52.330;9.104;2022-08-19T05:48:19;100704.91;;;22.27;74.80
3132;BME280;62090;52.330;9.104;2022-08-19T05:50:49;100692.84;;;22.26;74.26
3132;BME280;62090;52.330;9.104;2022-08-19T05:53:19;100665.38;;;22.16;74.11
3132;BME280;62090;52.330;9.104;2022-08-19T05:55:49;100710.47;;;22.47;73.48
3132;BME280;62090;52.330;9.104;2022-08-19T05:58:20;100645.63;;;22.10;73.41
3132;BME280;62090;52.330;9.104;2022-08-19T06:00:53;100710.56;;;22.44;73.67
3132;BME280;62090;52.330;9.104;2022-08-19T06:03:26;100699.88;;;22.56;73.97
3132;BME280;62090;52.330;9.104;2022-08-19T06:05:56;100691.25;;;22.54;73.32
3132;BME280;62090;52.330;9.104;2022-08-19T06:08:29;100656.97;;;22.42;73.17
3132;BME280;62090;52.330;9.104;2022-08-19T06:11:18;100701.50;;;22.60;72.22
3132;BME280;62090;52.330;9.104;2022-08-19T06:13:50;100711.72;;;22.66;72.81
3132;BME280;62090;52.330;9.104;2022-08-19T06:16:27;100717.97;;;22.59;73.20
3132;BME280;62090;52.330;9.104;2022-08-19T06:19:06;100705.38;;;22.44;73.57
3132;BME280;62090;52.330;9.104;2022-08-19T06:21:38;100710.84;;;22.67;73.51
3132;BME280;62090;52.330;9.104;2022-08-19T06:24:10;100722.19;;;22.97;73.16
3132;BME280;62090;52.330;9.104;2022-08-19T06:26:45;100717.97;;;22.93;71.83
3132;BME280;62090;52.330;9.104;2022-08-19T06:29:17;100714.34;;;22.65;72.46
3132;BME280;62090;52.330;9.104;2022-08-19T06:32:02;100700.03;;;22.50;73.18
3132;BME280;62090;52.330;9.104;2022-08-19T06:34:35;100693.00;;;22.54;73.59
3132;BME280;62090;52.330;9.104;2022-08-19T06:37:13;100722.91;;;22.68;73.67
3132;BME280;62090;52.330;9.104;2022-08-19T06:39:49;100711.38;;;22.46;74.00
3132;BME280;62090;52.330;9.104;2022-08-19T06:42:19;100689.53;;;22.19;74.25
3132;BME280;62090;52.330;9.104;2022-08-19T06:44:49;100711.41;;;22.09;75.28
3132;BME280;62090;52.330;9.104;2022-08-19T06:47:38;100675.25;;;22.02;75.29
3132;BME280;62090;52.330;9.104;2022-08-19T06:50:18;100714.63;;;22.20;76.42
3132;BME280;62090;52.330;9.104;2022-08-19T06:52:51;100712.31;;;22.42;76.50
3132;BME280;62090;52.330;9.104;2022-08-19T06:55:51;100708.13;;;22.38;73.94
3132;BME280;62090;52.330;9.104;2022-08-19T06:58:32;100735.75;;;22.41;74.02
3132;BME280;62090;52.330;9.104;2022-08-19T07:01:03;100582.19;;;21.49;74.51
3132;BME280;62090;52.330;9.104;2022-08-19T07:03:36;100692.34;;;22.10;75.12
3132;BME280;62090;52.330;9.104;2022-08-19T07:06:11;100721.28;;;22.30;74.17
3132;BME280;62090;52.330;9.104;2022-08-19T07:09:04;100745.44;;;22.34;74.20
3132;BME280;62090;52.330;9.104;2022-08-19T07:11:34;100752.63;;;22.23;75.51
3132;BME280;62090;52.330;9.104;2022-08-19T07:14:05;100740.41;;;22.26;74.52
3132;BME280;62090;52.330;9.104;2022-08-19T07:16:46;100749.88;;;22.29;74.76
3132;BME280;62090;52.330;9.104;2022-08-19T07:19:17;100755.16;;;22.26;75.05
3132;BME280;62090;52.330;9.104;2022-08-19T07:21:51;100724.41;;;22.09;75.47
3132;BME280;62090;52.330;9.104;2022-08-19T07:24:27;100752.47;;;22.29;75.20
3132;BME280;62090;52.330;9.104;2022-08-19T07:27:04;100769.13;;;22.57;75.34
3132;BME280;62090;52.330;9.104;2022-08-19T07:29:41;100772.47;;;22.62;74.84
3132;BME280;62090;52.330;9.104;2022-08-19T07:32:11;100762.91;;;22.63;74.38
3132;BME280;62090;52.330;9.104;2022-08-19T07:34:41;100768.94;;;22.63;73.81
3132;BME280;62090;52.330;9.104;2022-08-19T07:37:14;100769.69;;;22.68;74.01
3132;BME280;62090;52.330;9.104;2022-08-19T07:39:44;100787.84;;;22.71;73.11
3132;BME280;62090;52.330;9.104;2022-08-19T07:42:14;100780.94;;;22.69;73.92
3132;BME280;62090;52.330;9.104;2022-08-19T07:44:48;100790.97;;;22.84;73.31
3132;BME280;62090;52.330;9.104;2022-08-19T07:47:17;100795.06;;;22.94;72.97
3132;BME280;62090;52.330;9.104;2022-08-19T07:50:10;100810.31;;;23.08;73.20
3132;BME280;62090;52.330;9.104;2022-08-19T07:52:43;100787.53;;;22.84;72.38
3132;BME280;62090;52.330;9.104;2022-08-19T07:55:22;100814.91;;;22.97;71.94
3132;BME280;62090;52.330;9.104;2022-08-19T07:58:10;100805.78;;;22.82;72.59
3132;BME280;62090;52.330;9.104;2022-08-19T08:00:41;100813.59;;;22.81;71.96
3132;BME280;62090;52.330;9.104;2022-08-19T08:03:11;100815.06;;;22.55;72.55
3132;BME280;62090;52.330;9.104;2022-08-19T08:05:42;100801.28;;;22.52;73.24
3132;BME280;62090;52.330;9.104;2022-08-19T08:08:27;100810.34;;;22.72;72.52
3132;BME280;62090;52.330;9.104;2022-08-19T08:11:23;100818.00;;;22.79;72.78
3132;BME280;62090;52.330;9.104;2022-08-19T08:13:56;100833.31;;;22.89;72.70
3132;BME280;62090;52.330;9.104;2022-08-19T08:16:33;100823.84;;;22.87;71.78
3132;BME280;62090;52.330;9.104;2022-08-19T08:19:13;100826.78;;;23.07;72.68
3132;BME280;62090;52.330;9.104;2022-08-19T08:21:53;100836.84;;;23.21;71.33
3132;BME280;62090;52.330;9.104;2022-08-19T08:24:27;100792.50;;;22.93;70.83
3132;BME280;62090;52.330;9.104;2022-08-19T08:26:59;100829.34;;;23.08;70.52
3132;BME280;62090;52.330;9.104;2022-08-19T08:29:37;100830.72;;;23.22;70.99
3132;BME280;62090;52.330;9.104;2022-08-19T08:32:10;100776.66;;;23.02;69.56
3132;BME280;62090;52.330;9.104;2022-08-19T08:34:41;100809.16;;;23.18;69.75
3132;BME280;62090;52.330;9.104;2022-08-19T08:37:17;100834.59;;;23.39;69.56
3132;BME280;62090;52.330;9.104;2022-08-19T08:39:50;100828.84;;;23.61;69.64
3132;BME280;62090;52.330;9.104;2022-08-19T08:42:25;100838.91;;;23.40;68.74
3132;BME280;62090;52.330;9.104;2022-08-19T08:44:59;100825.75;;;23.14;68.85
3132;BME280;62090;52.330;9.104;2022-08-19T08:47:36;100816.03;;;22.87;68.96
3132;BME280;62090;52.330;9.104;2022-08-19T08:50:15;100808.09;;;22.93;69.82
3132;BME280;62090;52.330;9.104;2022-08-19T08:52:53;100810.03;;;23.19;68.87
3132;BME280;62090;52.330;9.104;2022-08-19T08:55:29;100823.22;;;23.43;67.95
3132;BME280;62090;52.330;9.104;2022-08-19T08:58:05;100817.09;;;23.47;66.25
3132;BME280;62090;52.330;9.104;2022-08-19T09:00:39;100815.38;;;23.46;65.36
3132;BME280;62090;52.330;9.104;2022-08-19T09:03:17;100812.59;;;23.20;63.82
3132;BME280;62090;52.330;9.104;2022-08-19T09:05:56;100812.91;;;23.08;64.70
3132;BME280;62090;52.330;9.104;2022-08-19T09:08:37;100817.94;;;23.14;64.33
3132;BME280;62090;52.330;9.104;2022-08-19T09:11:15;100815.91;;;23.25;64.45
3132;BME280;62090;52.330;9.104;2022-08-19T09:14:13;100822.03;;;23.23;64.66
3132;BME280;62090;52.330;9.104;2022-08-19T09:17:05;100818.25;;;23.02;64.36
3132;BME280;62090;52.330;9.104;2022-08-19T09:19:36;100823.19;;;23.11;63.38
3132;BME280;62090;52.330;9.104;2022-08-19T09:22:23;100756.81;;;22.99;62.40
3132;BME280;62090;52.330;9.104;2022-08-19T09:24:54;100817.56;;;23.28;62.56
3132;BME280;62090;52.330;9.104;2022-08-19T09:27:29;100820.09;;;23.31;62.34
3132;BME280;62090;52.330;9.104;2022-08-19T09:30:12;100835.56;;;24.28;59.83
3132;BME280;62090;52.330;9.104;2022-08-19T09:32:44;100815.56;;;24.56;58.05
3132;BME280;62090;52.330;9.104;2022-08-19T09:35:19;100822.13;;;24.12;59.72
3132;BME280;62090;52.330;9.104;2022-08-19T09:37:50;100818.56;;;24.16;60.38
3132;BME280;62090;52.330;9.104;2022-08-19T09:40:26;100753.56;;;23.84;60.29
3132;BME280;62090;52.330;9.104;2022-08-19T09:43:01;100808.13;;;24.16;60.79
3132;BME280;62090;52.330;9.104;2022-08-19T09:45:44;100808.03;;;24.21;59.85
3132;BME280;62090;52.330;9.104;2022-08-19T09:48:14;100806.66;;;24.37;59.52
3132;BME280;62090;52.330;9.104;2022-08-19T09:50:49;100812.69;;;24.37;59.67
3132;BME280;62090;52.330;9.104;2022-08-19T09:53:19;100820.78;;;24.56;57.74
3132;BME280;62090;52.330;9.104;2022-08-19T09:55:55;100799.78;;;24.61;56.80
3132;BME280;62090;52.330;9.104;2022-08-19T09:58:27;100817.88;;;24.65;56.97
3132;BME280;62090;52.330;9.104;2022-08-19T10:00:58;100813.28;;;25.24;56.13
3132;BME280;62090;52.330;9.104;2022-08-19T10:03:30;100811.84;;;24.91;55.42
3132;BME280;62090;52.330;9.104;2022-08-19T10:06:01;100818.22;;;24.81;54.73
3132;BME280;62090;52.330;9.104;2022-08-19T10:08:42;100819.25;;;24.77;55.19
3132;BME280;62090;52.330;9.104;2022-08-19T10:11:17;100815.63;;;24.81;53.19
3132;BME280;62090;52.330;9.104;2022-08-19T10:13:57;100824.88;;;24.91;54.33
3132;BME280;62090;52.330;9.104;2022-08-19T10:16:27;100813.22;;;25.01;55.01
3132;BME280;62090;52.330;9.104;2022-08-19T10:19:05;100807.72;;;25.10;54.12
3132;BME280;62090;52.330;9.104;2022-08-19T10:21:36;100810.13;;;25.16;54.05
3132;BME280;62090;52.330;9.104;2022-08-19T10:24:07;100814.69;;;25.35;52.99
3132;BME280;62090;52.330;9.104;2022-08-19T10:26:38;100801.06;;;25.27;52.15
3132;BME280;62090;52.330;9.104;2022-08-19T10:29:16;100813.56;;;25.42;52.46
3132;BME280;62090;52.330;9.104;2022-08-19T10:31:59;100810.06;;;25.43;53.44
3132;BME280;62090;52.330;9.104;2022-08-19T10:34:30;100790.72;;;25.48;53.38
3132;BME280;62090;52.330;9.104;2022-08-19T10:37:02;100801.13;;;25.73;53.42
3132;BME280;62090;52.330;9.104;2022-08-19T10:39:36;100785.69;;;25.67;51.73
3132;BME280;62090;52.330;9.104;2022-08-19T10:42:09;100774.94;;;25.51;52.10
3132;BME280;62090;52.330;9.104;2022-08-19T10:44:42;100775.75;;;25.53;51.84
3132;BME280;62090;52.330;9.104;2022-08-19T10:47:14;100774.81;;;25.54;52.58
3132;BME280;62090;52.330;9.104;2022-08-19T10:49:53;100755.41;;;25.63;52.09
3132;BME280;62090;52.330;9.104;2022-08-19T10:52:38;100764.16;;;25.84;52.11
3132;BME280;62090;52.330;9.104;2022-08-19T10:55:18;100757.81;;;25.91;50.83
3132;BME280;62090;52.330;9.104;2022-08-19T10:58:01;100754.88;;;25.98;51.73
3132;BME280;62090;52.330;9.104;2022-08-19T11:00:33;100751.78;;;25.89;50.84
3132;BME280;62090;52.330;9.104;2022-08-19T11:03:03;100748.69;;;25.79;50.60
3132;BME280;62090;52.330;9.104;2022-08-19T11:05:35;100748.06;;;25.73;49.52
3132;BME280;62090;52.330;9.104;2022-08-19T11:08:06;100742.75;;;25.51;49.41
3132;BME280;62090;52.330;9.104;2022-08-19T11:10:50;100746.75;;;25.61;48.62
3132;BME280;62090;52.330;9.104;2022-08-19T11:13:28;100721.56;;;25.60;49.75
3132;BME280;62090;52.330;9.104;2022-08-19T11:16:02;100735.44;;;25.84;49.34
3132;BME280;62090;52.330;9.104;2022-08-19T11:18:35;100744.81;;;25.89;48.89
3132;BME280;62090;52.330;9.104;2022-08-19T11:21:09;100735.47;;;26.05;49.32
3132;BME280;62090;52.330;9.104;2022-08-19T11:23:39;100730.66;;;26.17;48.56
3132;BME280;62090;52.330;9.104;2022-08-19T11:26:10;100729.81;;;26.16;48.91
3132;BME280;62090;52.330;9.104;2022-08-19T11:28:40;100730.53;;;26.20;48.49
3132;BME280;62090;52.330;9.104;2022-08-19T11:31:15;100730.13;;;26.30;48.29
3132;BME280;62090;52.330;9.104;2022-08-19T11:33:46;100728.56;;;26.26;47.91
3132;BME280;62090;52.330;9.104;2022-08-19T11:36:18;100725.56;;;26.35;48.10
3132;BME280;62090;52.330;9.104;2022-08-19T11:38:49;100724.22;;;26.47;48.16
3132;BME280;62090;52.330;9.104;2022-08-19T11:41:20;100714.22;;;26.57;47.50
3132;BME280;62090;52.330;9.104;2022-08-19T11:43:50;100706.63;;;26.51;46.94
3132;BME280;62090;52.330;9.104;2022-08-19T11:46:26;100712.81;;;26.70;46.64
3132;BME280;62090;52.330;9.104;2022-08-19T11:48:56;100713.25;;;26.79;45.08
3132;BME280;62090;52.330;9.104;2022-08-19T11:51:27;100719.81;;;26.89;44.04
3132;BME280;62090;52.330;9.104;2022-08-19T11:53:58;100721.53;;;26.91;43.53
3132;BME280;62090;52.330;9.104;2022-08-19T11:56:28;100715.72;;;26.82;42.64
3132;BME280;62090;52.330;9.104;2022-08-19T11:59:01;100717.84;;;26.74;42.21
3132;BME280;62090;52.330;9.104;2022-08-19T12:01:33;100700.81;;;26.84;42.31
3132;BME280;62090;52.330;9.104;2022-08-19T12:04:03;100709.00;;;26.97;42.83
3132;BME280;62090;52.330;9.104;2022-08-19T12:06:33;100696.28;;;26.89;43.44
3132;BME280;62090;52.330;9.104;2022-08-19T12:09:06;100712.78;;;27.10;43.01
3132;BME280;62090;52.330;9.104;2022-08-19T12:11:37;100720.38;;;27.16;43.22
3132;BME280;62090;52.330;9.104;2022-08-19T12:14:11;100713.66;;;27.11;42.47
3132;BME280;62090;52.330;9.104;2022-08-19T12:16:46;100718.47;;;27.20;41.87
3132;BME280;62090;52.330;9.104;2022-08-19T12:19:18;100718.41;;;27.21;42.22
3132;BME280;62090;52.330;9.104;2022-08-19T12:21:49;100712.56;;;27.15;41.84
3132;BME280;62090;52.330;9.104;2022-08-19T12:24:19;100713.22;;;27.20;42.84
3132;BME280;62090;52.330;9.104;2022-08-19T12:26:51;100707.16;;;27.38;44.06
3132;BME280;62090;52.330;9.104;2022-08-19T12:29:27;100707.53;;;27.49;41.81
3132;BME280;62090;52.330;9.104;2022-08-19T12:32:00;100694.78;;;27.42;42.56
3132;BME280;62090;52.330;9.104;2022-08-19T12:34:31;100691.25;;;27.43;43.02
3132;BME280;62090;52.330;9.104;2022-08-19T12:37:05;100695.81;;;27.58;42.23
3132;BME280;62090;52.330;9.104;2022-08-19T12:39:37;100690.56;;;27.58;42.43
3132;BME280;62090;52.330;9.104;2022-08-19T12:42:08;100693.31;;;27.73;42.22
3132;BME280;62090;52.330;9.104;2022-08-19T12:44:40;100670.22;;;27.82;42.68
3132;BME280;62090;52.330;9.104;2022-08-19T12:47:13;100679.72;;;27.84;42.05
3132;BME280;62090;52.330;9.104;2022-08-19T12:49:45;100647.16;;;27.71;41.89
3132;BME280;62090;52.330;9.104;2022-08-19T12:52:22;100622.09;;;27.65;41.96
3132;BME280;62090;52.330;9.104;2022-08-19T12:54:54;100668.66;;;27.96;41.52
3132;BME280;62090;52.330;9.104;2022-08-19T12:57:26;100662.38;;;27.99;42.90
3132;BME280;62090;52.330;9.104;2022-08-19T13:00:00;100661.94;;;28.08;41.75
3132;BME280;62090;52.330;9.104;2022-08-19T13:02:35;100667.63;;;27.99;41.66
3132;BME280;62090;52.330;9.104;2022-08-19T13:05:07;100661.19;;;28.06;42.36
3132;BME280;62090;52.330;9.104;2022-08-19T13:07:39;100658.56;;;28.06;41.15
3132;BME280;62090;52.330;9.104;2022-08-19T13:10:13;100657.16;;;27.99;42.33
3132;BME280;62090;52.330;9.104;2022-08-19T13:12:44;100648.06;;;28.06;42.97
3132;BME280;62090;52.330;9.104;2022-08-19T13:15:16;100644.66;;;28.23;42.66
3132;BME280;62090;52.330;9.104;2022-08-19T13:17:53;100659.06;;;28.31;42.94
3132;BME280;62090;52.330;9.104;2022-08-19T13:20:23;100604.81;;;27.80;41.82
3132;BME280;62090;52.330;9.104;2022-08-19T13:22:53;100603.25;;;27.76;41.89
3132;BME280;62090;52.330;9.104;2022-08-19T13:25:24;100665.47;;;28.26;41.52
3132;BME280;62090;52.330;9.104;2022-08-19T13:27:54;100593.88;;;27.89;42.29
3132;BME280;62090;52.330;9.104;2022-08-19T13:30:24;100594.50;;;27.94;42.34
3132;BME280;62090;52.330;9.104;2022-08-19T13:33:09;100668.84;;;28.45;41.49
3132;BME280;62090;52.330;9.104;2022-08-19T13:35:45;100656.31;;;28.67;41.02
3132;BME280;62090;52.330;9.104;2022-08-19T13:38:18;100652.09;;;28.65;40.89
3132;BME280;62090;52.330;9.104;2022-08-19T13:40:49;100554.66;;;28.05;41.09
3132;BME280;62090;52.330;9.104;2022-08-19T13:43:21;100654.28;;;28.74;41.12